LYNI/INI METAR and TAF weather

Enter ICAO airport designator
Station Type Date Time Source
LYNI METAR 2020/04/04 21:30 UTC NOAA

LYNI 042130Z 36001KT CAVOK 11/02 Q1019 NOSIG


Station Type Date Time Source
LYNI Decoded METAR 2020/04/04 21:30 UTC NOAA

Nis, Serbia and Montenegro (LYNI) 43-20N 021-54E 202M
Apr 04, 2020 - 05:30 PM EDT / 2020.04.04 2130 UTC
Wind: from the N (360 degrees) at 1 MPH (1 KT):0
Visibility: greater than 7 mile(s):0
Temperature: 51 F (11 C)
Dew Point: 35 F (2 C)
Relative Humidity: 53%
Pressure (altimeter): 30.09 in. Hg (1019 hPa)
ob: LYNI 042130Z 36001KT CAVOK 11/02 Q1019 NOSIG
cycle: 21

Station Type Date Time Source
LYNI TAF 2020/04/04 18:21 UTC NOAA

TAF LYNI 041700Z 0418/0518 05008KT 9999 SCT040 TX15/0513Z TN04/0505Z
TEMPO 0507/0515 05018KT

Example: see airport list